Time;durP1;ratioP1;P1;durP2;ratioP2;P2;SDS_P1;SDS_P2;PMS_P1;PMS_P2;Temp;Humidity;BMP_temperature;BMP_pressure;BME280_temperature;BME280_humidity;BME280_pressure;Samples;Min_cycle;Max_cycle;Signal;HPM_P1;HPM_P2
2021/01/17 00:00:19;;;;;;;51.67;47.10;;;1.40;99.30;;;;;;4994091;28;20661;-72
2021/01/17 00:02:45;;;;;;;54.13;49.67;;;1.30;98.90;;;;;;4994678;28;20168;-72
2021/01/17 00:05:16;;;;;;;45.72;41.72;;;1.40;99.20;;;;;;4994424;28;20196;-72
2021/01/17 00:07:41;;;;;;;41.95;38.60;;;1.40;98.90;;;;;;4993079;28;20180;-72
2021/01/17 00:10:10;;;;;;;46.40;42.10;;;1.40;99.20;;;;;;4992744;28;20716;-72
2021/01/17 00:12:38;;;;;;;42.50;38.30;;;1.50;99.40;;;;;;4992703;28;20172;-72
2021/01/17 00:15:13;;;;;;;44.53;40.35;;;1.50;99.50;;;;;;4994671;28;20172;-72
2021/01/17 00:17:39;;;;;;;44.78;40.60;;;1.50;99.50;;;;;;4998161;28;20179;-72
2021/01/17 00:20:10;;;;;;;44.50;40.40;;;1.60;99.30;;;;;;4998372;28;20283;-72
2021/01/17 00:22:36;;;;;;;39.08;35.70;;;1.60;99.10;;;;;;4998577;28;20406;-72
2021/01/17 00:25:05;;;;;;;40.33;36.63;;;1.60;99.20;;;;;;4996672;28;20187;-72
2021/01/17 00:27:31;;;;;;;45.42;41.15;;;1.60;99.00;;;;;;4997759;28;20172;-72
2021/01/17 00:29:57;;;;;;;46.27;42.20;;;1.60;99.00;;;;;;4996716;28;20579;-72
2021/01/17 00:32:22;;;;;;;40.30;36.30;;;1.60;99.20;;;;;;4998051;28;20164;-72
2021/01/17 00:34:48;;;;;;;48.30;44.10;;;1.60;99.10;;;;;;4997641;28;20662;-72
2021/01/17 00:37:14;;;;;;;46.80;42.80;;;1.50;98.70;;;;;;4997548;28;20192;-72
2021/01/17 00:39:40;;;;;;;47.92;44.15;;;1.40;98.90;;;;;;4996986;28;20549;-72
2021/01/17 00:42:13;;;;;;;52.23;48.03;;;1.40;98.90;;;;;;4997678;28;20187;-72
2021/01/17 00:44:40;;;;;;;48.40;44.22;;;1.40;98.90;;;;;;4997955;28;20442;-72
2021/01/17 00:47:05;;;;;;;44.50;40.90;;;1.50;99.10;;;;;;4996530;28;20322;-72
2021/01/17 00:49:31;;;;;;;41.30;37.70;;;1.50;99.00;;;;;;4997794;28;20665;-72
2021/01/17 00:51:57;;;;;;;42.08;38.47;;;1.50;99.00;;;;;;4998046;28;20410;-72
2021/01/17 00:54:23;;;;;;;36.87;33.53;;;1.50;98.90;;;;;;4997245;28;20219;-72
2021/01/17 00:56:48;;;;;;;43.23;39.73;;;1.50;98.80;;;;;;4997255;28;20168;-72
2021/01/17 00:59:14;;;;;;;45.83;42.03;;;1.50;99.00;;;;;;4997506;28;20505;-72
2021/01/17 01:01:42;;;;;;;45.67;41.97;;;1.50;98.60;;;;;;4997639;28;20172;-72
2021/01/17 01:04:16;;;;;;;41.35;37.80;;;1.40;98.70;;;;;;4997590;28;20493;-72
2021/01/17 01:06:42;;;;;;;42.40;38.92;;;1.50;99.00;;;;;;4997247;28;20176;-72
2021/01/17 01:09:14;;;;;;;42.53;39.22;;;1.50;98.90;;;;;;4997229;28;20769;-72
2021/01/17 01:11:40;;;;;;;47.38;43.95;;;1.40;98.70;;;;;;4997058;28;20657;-72
2021/01/17 01:14:07;;;;;;;47.97;44.33;;;1.50;98.90;;;;;;4997309;28;20192;-72
2021/01/17 01:16:32;;;;;;;48.67;44.33;;;1.50;99.00;;;;;;4996964;28;20168;-72
2021/01/17 01:18:59;;;;;;;43.17;39.50;;;1.40;98.90;;;;;;4997138;28;20666;-72
2021/01/17 01:21:29;;;;;;;44.88;41.45;;;1.40;98.80;;;;;;4997630;28;20404;-72
2021/01/17 01:23:55;;;;;;;45.80;42.40;;;1.40;98.70;;;;;;4996882;28;20179;-72
2021/01/17 01:26:24;;;;;;;46.17;42.47;;;1.30;98.60;;;;;;4996740;28;20176;-72
2021/01/17 01:28:52;;;;;;;44.67;40.95;;;1.30;98.80;;;;;;4996069;28;20192;-72
2021/01/17 01:31:23;;;;;;;44.00;40.20;;;1.20;98.80;;;;;;4997167;28;20180;-72
2021/01/17 01:33:50;;;;;;;45.08;41.03;;;1.20;98.80;;;;;;4997098;28;20311;-72
2021/01/17 01:36:23;;;;;;;43.28;39.65;;;1.20;99.30;;;;;;4996331;28;20569;-72
2021/01/17 01:38:49;;;;;;;42.40;39.00;;;1.20;99.20;;;;;;4996750;28;20199;-72
2021/01/17 01:41:15;;;;;;;43.83;39.95;;;1.20;99.00;;;;;;4996918;28;20176;-72
2021/01/17 01:43:41;;;;;;;45.85;42.20;;;1.10;98.80;;;;;;4996548;28;20172;-72
2021/01/17 01:46:10;;;;;;;45.60;41.90;;;1.10;99.20;;;;;;4996496;28;20278;-72
2021/01/17 01:48:36;;;;;;;43.90;39.90;;;1.10;99.40;;;;;;4995786;28;20199;-72
2021/01/17 01:51:02;;;;;;;56.47;52.17;;;1.20;99.60;;;;;;4996467;28;20187;-72
2021/01/17 01:53:31;;;;;;;52.22;48.22;;;1.10;99.20;;;;;;4996465;28;20258;-72
2021/01/17 01:55:57;;;;;;;45.20;41.03;;;1.10;99.10;;;;;;4996476;28;20571;-72
2021/01/17 01:58:23;;;;;;;44.05;40.40;;;1.20;99.30;;;;;;4996391;28;20623;-72
2021/01/17 02:00:52;;;;;;;49.70;45.73;;;1.20;99.30;;;;;;4996698;28;20168;-72
2021/01/17 02:03:17;;;;;;;53.08;48.83;;;1.20;99.40;;;;;;4996334;28;20418;-72
2021/01/17 02:05:47;;;;;;;51.13;46.93;;;1.20;99.20;;;;;;4995978;28;20259;-72
2021/01/17 02:08:46;;;;;;;47.40;43.60;;;1.30;99.60;;;;;;4996267;28;20183;-72
2021/01/17 02:11:23;;;;;;;45.83;42.03;;;1.20;99.30;;;;;;4995381;28;20230;-72
2021/01/17 02:14:00;;;;;;;45.28;41.20;;;1.20;99.20;;;;;;4996534;28;20214;-72
2021/01/17 02:16:27;;;;;;;48.13;44.20;;;1.20;99.20;;;;;;4996026;28;20246;-72
2021/01/17 02:18:54;;;;;;;45.83;42.22;;;1.20;99.40;;;;;;4996133;28;20190;-72
2021/01/17 02:21:21;;;;;;;51.38;47.17;;;1.30;99.50;;;;;;4995402;28;20215;-72
2021/01/17 02:23:55;;;;;;;44.33;40.78;;;1.30;99.50;;;;;;4996388;28;20180;-72
2021/01/17 02:26:21;;;;;;;46.95;43.15;;;1.40;99.70;;;;;;4995918;28;20164;-73
2021/01/17 02:28:48;;;;;;;43.33;39.67;;;1.40;99.40;;;;;;4995777;28;20188;-72
2021/01/17 02:31:17;;;;;;;41.88;38.45;;;1.40;99.50;;;;;;4995789;28;20167;-72
2021/01/17 02:33:46;;;;;;;43.22;39.60;;;1.50;99.70;;;;;;4995963;28;20200;-72
2021/01/17 02:36:42;;;;;;;45.38;41.70;;;1.50;99.70;;;;;;4995483;28;20172;-72
2021/01/17 02:39:17;;;;;;;45.65;41.65;;;1.50;99.80;;;;;;4995204;28;20270;-72
2021/01/17 02:42:00;;;;;;;39.20;35.60;;;1.50;99.40;;;;;;4994530;28;20171;-72
2021/01/17 02:44:27;;;;;;;44.33;40.53;;;1.40;99.00;;;;;;4994669;28;20638;-72
2021/01/17 02:46:53;;;;;;;44.00;39.83;;;1.40;99.20;;;;;;4995099;28;20207;-72
2021/01/17 02:49:19;;;;;;;50.70;46.10;;;1.40;99.10;;;;;;4995359;28;20195;-72
2021/01/17 02:51:46;;;;;;;49.10;44.67;;;1.20;98.90;;;;;;4995478;28;20438;-72
2021/01/17 02:54:21;;;;;;;48.70;44.53;;;1.20;99.20;;;;;;4995449;28;20199;-72
2021/01/17 02:57:01;;;;;;;45.15;41.58;;;1.30;99.30;;;;;;4995117;28;20649;-72
2021/01/17 02:59:34;;;;;;;46.35;42.67;;;1.10;99.00;;;;;;4995279;28;20215;-72
2021/01/17 03:02:02;;;;;;;44.47;40.50;;;1.10;99.20;;;;;;4995409;28;20164;-72
2021/01/17 03:04:44;;;;;;;45.30;41.50;;;1.20;99.50;;;;;;4994988;28;20180;-72
2021/01/17 03:07:13;;;;;;;46.15;42.75;;;1.30;99.40;;;;;;4993847;28;20183;-72
2021/01/17 03:09:40;;;;;;;45.92;42.03;;;1.20;99.20;;;;;;4995131;28;20254;-73
2021/01/17 03:12:06;;;;;;;50.38;46.08;;;1.20;99.30;;;;;;4994711;28;20646;-72
2021/01/17 03:14:35;;;;;;;49.60;45.70;;;1.30;99.50;;;;;;4994769;28;20200;-72
2021/01/17 03:17:06;;;;;;;45.10;41.47;;;1.30;99.60;;;;;;4994720;28;20168;-72
2021/01/17 03:19:32;;;;;;;42.92;38.85;;;1.20;99.20;;;;;;4993444;28;20653;-72
2021/01/17 03:21:58;;;;;;;41.65;37.75;;;1.20;99.30;;;;;;4995184;28;20713;-72
2021/01/17 03:24:24;;;;;;;39.63;35.90;;;1.10;98.90;;;;;;4994631;28;20184;-72
2021/01/17 03:26:50;;;;;;;42.57;38.67;;;1.10;99.10;;;;;;4994611;28;20184;-72
2021/01/17 03:29:15;;;;;;;42.27;38.00;;;1.10;99.30;;;;;;4994700;28;20439;-72
2021/01/17 03:31:41;;;;;;;47.50;43.10;;;1.10;99.10;;;;;;4994861;28;20206;-72
2021/01/17 03:34:07;;;;;;;48.20;44.20;;;1.10;99.20;;;;;;4994803;28;20211;-72
2021/01/17 03:36:32;;;;;;;46.00;41.70;;;1.10;99.10;;;;;;4993232;28;20702;-72
2021/01/17 03:38:58;;;;;;;50.20;46.00;;;1.20;99.40;;;;;;4993602;28;20199;-72
2021/01/17 03:41:24;;;;;;;44.87;41.27;;;1.20;99.50;;;;;;4993171;28;20183;-72
2021/01/17 03:43:50;;;;;;;48.38;44.25;;;1.20;99.30;;;;;;4994342;28;20546;-72
2021/01/17 03:46:16;;;;;;;42.90;39.30;;;1.10;99.30;;;;;;4994353;28;20530;-72
2021/01/17 03:48:42;;;;;;;46.15;42.20;;;1.10;99.30;;;;;;4994511;28;20238;-72
2021/01/17 03:51:08;;;;;;;44.87;41.10;;;1.10;99.20;;;;;;4993517;28;20203;-72
2021/01/17 03:53:34;;;;;;;46.08;42.38;;;1.10;99.30;;;;;;4993554;28;20506;-72
2021/01/17 03:55:59;;;;;;;45.47;41.87;;;1.10;99.20;;;;;;4994156;28;20176;-72
2021/01/17 03:58:25;;;;;;;46.37;42.17;;;1.10;99.30;;;;;;4994140;28;20179;-72
2021/01/17 04:00:50;;;;;;;51.40;47.30;;;1.20;99.40;;;;;;4992922;28;20267;-72
2021/01/17 04:03:16;;;;;;;45.87;41.67;;;1.20;99.30;;;;;;4994558;28;20258;-72
2021/01/17 04:05:41;;;;;;;39.60;36.40;;;1.20;99.40;;;;;;4993909;28;20209;-72
2021/01/17 04:08:07;;;;;;;43.57;39.70;;;1.20;99.40;;;;;;4994836;28;20560;-72
2021/01/17 04:10:33;;;;;;;43.10;39.00;;;1.20;99.50;;;;;;4993984;28;20192;-72
2021/01/17 04:12:58;;;;;;;45.83;42.13;;;1.20;99.30;;;;;;4994216;28;20204;-72
2021/01/17 04:15:24;;;;;;;48.13;44.43;;;1.20;99.60;;;;;;4994037;28;20642;-73
2021/01/17 04:17:49;;;;;;;51.83;47.63;;;1.30;99.70;;;;;;4994325;28;20168;-72
2021/01/17 04:20:15;;;;;;;48.77;44.73;;;1.30;99.50;;;;;;4994195;28;20195;-72
2021/01/17 04:22:41;;;;;;;47.47;43.57;;;1.30;99.60;;;;;;4992737;28;20180;-72
2021/01/17 04:25:07;;;;;;;43.57;39.67;;;1.40;99.70;;;;;;4993982;28;20402;-72
2021/01/17 04:27:33;;;;;;;46.55;42.30;;;1.40;99.70;;;;;;4992520;28;20176;-72
2021/01/17 04:29:59;;;;;;;50.57;46.20;;;1.40;99.70;;;;;;4993824;28;20195;-72
2021/01/17 04:32:25;;;;;;;62.00;57.20;;;1.40;99.60;;;;;;4994320;28;20178;-72
2021/01/17 04:34:51;;;;;;;64.97;59.90;;;1.30;99.80;;;;;;4992559;28;20219;-72
2021/01/17 04:37:21;;;;;;;54.38;50.08;;;1.40;99.90;;;;;;4993538;28;20685;-72
2021/01/17 04:39:47;;;;;;;51.08;46.58;;;1.40;99.70;;;;;;4993829;28;20196;-72
2021/01/17 04:42:18;;;;;;;57.17;52.58;;;1.40;99.90;;;;;;4993833;28;20184;-72
2021/01/17 04:44:50;;;;;;;48.80;44.38;;;1.40;99.70;;;;;;4994218;28;20179;-72
2021/01/17 04:47:20;;;;;;;52.72;48.08;;;1.40;99.80;;;;;;4994226;28;20180;-72
2021/01/17 04:49:53;;;;;;;49.55;45.38;;;1.40;99.70;;;;;;4993891;28;20666;-73
2021/01/17 04:52:20;;;;;;;49.22;44.55;;;1.40;99.80;;;;;;4994000;28;20696;-72
2021/01/17 04:54:47;;;;;;;47.20;42.97;;;1.40;99.70;;;;;;4993817;28;20206;-72
2021/01/17 04:57:23;;;;;;;48.63;44.30;;;1.20;99.50;;;;;;4993882;28;20182;-72
2021/01/17 05:00:05;;;;;;;45.20;41.17;;;1.20;99.60;;;;;;4993668;28;20211;-72
2021/01/17 05:02:42;;;;;;;45.17;41.17;;;1.20;99.80;;;;;;4996271;28;20160;-72
2021/01/17 05:05:23;;;;;;;55.95;51.25;;;1.10;99.50;;;;;;4997499;28;20255;-72
2021/01/17 05:08:15;;;;;;;50.95;46.80;;;1.20;99.80;;;;;;4997098;28;20184;-72
2021/01/17 05:10:46;;;;;;;52.72;47.92;;;1.20;99.90;;;;;;4997916;28;20152;-72
2021/01/17 05:13:16;;;;;;;47.78;43.67;;;1.20;99.90;;;;;;4997033;28;20191;-72
2021/01/17 05:15:43;;;;;;;49.75;45.65;;;1.20;99.90;;;;;;4997181;28;20151;-73
2021/01/17 05:18:10;;;;;;;52.78;48.65;;;1.30;99.90;;;;;;4997400;28;20176;-72
2021/01/17 05:20:35;;;;;;;49.20;45.65;;;1.30;99.90;;;;;;4997545;28;20262;-72
2021/01/17 05:23:06;;;;;;;46.20;42.53;;;1.30;99.90;;;;;;4997571;28;20218;-72
2021/01/17 05:25:32;;;;;;;48.42;44.92;;;1.10;99.60;;;;;;4996998;28;20232;-72
2021/01/17 05:27:58;;;;;;;48.50;44.60;;;1.10;99.80;;;;;;4997099;28;20176;-72
2021/01/17 05:30:23;;;;;;;48.92;45.35;;;1.10;99.80;;;;;;4997066;28;20646;-72
2021/01/17 05:32:51;;;;;;;46.83;43.17;;;1.00;99.70;;;;;;4997090;28;20176;-72
2021/01/17 05:35:18;;;;;;;45.35;41.70;;;1.00;99.90;;;;;;4997296;28;20186;-72
2021/01/17 05:37:54;;;;;;;46.03;42.38;;;1.00;99.90;;;;;;4996441;28;20195;-72
2021/01/17 05:40:21;;;;;;;52.85;49.35;;;1.10;99.90;;;;;;4995982;28;20207;-72
2021/01/17 05:42:48;;;;;;;45.70;42.25;;;1.10;99.90;;;;;;4997020;28;20172;-72
2021/01/17 05:45:16;;;;;;;43.25;39.65;;;1.10;99.90;;;;;;4995495;28;20705;-72
2021/01/17 05:47:51;;;;;;;50.35;46.85;;;1.10;99.90;;;;;;4996375;28;20160;-72
2021/01/17 05:50:17;;;;;;;41.85;38.15;;;1.00;99.90;;;;;;4996444;28;20191;-72
2021/01/17 05:52:43;;;;;;;42.38;39.13;;;0.90;99.90;;;;;;4996294;28;20172;-72
2021/01/17 05:55:15;;;;;;;35.92;32.92;;;0.80;99.90;;;;;;4996289;28;20172;-72
2021/01/17 05:57:41;;;;;;;37.90;34.65;;;0.80;99.90;;;;;;4996159;28;20179;-72
2021/01/17 06:00:07;;;;;;;36.43;33.20;;;0.90;99.90;;;;;;4996736;28;20220;-72
2021/01/17 06:02:34;;;;;;;39.60;36.50;;;0.80;99.90;;;;;;4996132;28;20164;-72
2021/01/17 06:05:02;;;;;;;34.53;31.40;;;0.80;99.90;;;;;;4996784;28;20231;-72
2021/01/17 06:07:32;;;;;;;43.58;40.00;;;0.70;99.90;;;;;;4996042;28;20275;-72
2021/01/17 06:10:07;;;;;;;44.75;41.25;;;0.60;99.90;;;;;;4996329;28;20194;-72
2021/01/17 06:12:36;;;;;;;46.13;42.28;;;0.60;99.90;;;;;;4996227;28;20171;-72
2021/01/17 06:15:07;;;;;;;42.83;39.47;;;0.50;99.90;;;;;;4995745;28;20770;-72
2021/01/17 06:17:35;;;;;;;42.50;39.40;;;0.50;99.90;;;;;;4995749;28;20203;-72
2021/01/17 06:20:03;;;;;;;45.50;42.22;;;0.50;99.90;;;;;;4996078;28;20224;-72
2021/01/17 06:22:29;;;;;;;43.05;39.47;;;0.60;99.90;;;;;;4994798;28;20186;-72
2021/01/17 06:25:04;;;;;;;45.67;42.22;;;0.60;99.90;;;;;;4996215;28;20255;-72
2021/01/17 06:27:29;;;;;;;41.60;38.15;;;0.60;99.90;;;;;;4995491;28;20172;-72
2021/01/17 06:29:56;;;;;;;40.73;37.53;;;0.70;99.90;;;;;;4995581;28;20242;-72
2021/01/17 06:32:25;;;;;;;42.72;39.65;;;0.70;99.90;;;;;;4995603;28;20419;-72
2021/01/17 06:34:55;;;;;;;52.55;48.88;;;0.80;99.90;;;;;;4995789;28;20199;-72
2021/01/17 06:37:23;;;;;;;45.92;42.63;;;0.80;99.90;;;;;;4995358;28;20203;-72
2021/01/17 06:39:53;;;;;;;42.10;38.70;;;0.80;99.90;;;;;;4995446;28;20716;-72
2021/01/17 06:42:20;;;;;;;41.22;37.25;;;0.80;99.90;;;;;;4995923;28;20179;-72
2021/01/17 06:44:48;;;;;;;44.30;40.58;;;0.80;99.90;;;;;;4995449;28;20242;-72
2021/01/17 06:47:14;;;;;;;42.08;38.15;;;0.80;99.90;;;;;;4995052;28;20509;-72
2021/01/17 06:49:40;;;;;;;43.35;39.90;;;0.80;99.90;;;;;;4995604;28;20187;-72
2021/01/17 06:52:06;;;;;;;45.80;42.30;;;0.80;99.90;;;;;;4995532;28;20184;-72
2021/01/17 06:54:40;;;;;;;41.20;37.70;;;0.70;99.90;;;;;;4995878;28;20200;-72
2021/01/17 06:57:06;;;;;;;40.78;37.72;;;0.70;99.90;;;;;;4995166;28;20172;-72
2021/01/17 06:59:46;;;;;;;39.08;35.42;;;0.70;99.90;;;;;;4995528;28;20199;-72
2021/01/17 07:02:15;;;;;;;45.13;41.72;;;0.80;99.90;;;;;;4995306;28;20187;-72
2021/01/17 07:04:42;;;;;;;48.95;44.40;;;0.70;99.90;;;;;;4995421;28;20175;-72
2021/01/17 07:07:28;;;;;;;45.35;42.10;;;0.60;99.90;;;;;;4994915;28;20176;-72
2021/01/17 07:10:00;;;;;;;44.05;40.50;;;0.60;99.90;;;;;;4995295;28;20237;-72
2021/01/17 07:12:34;;;;;;;53.53;49.72;;;0.50;99.90;;;;;;4995399;28;20257;-72
2021/01/17 07:15:08;;;;;;;52.10;48.00;;;0.60;99.90;;;;;;4995363;28;20204;-72
2021/01/17 07:17:39;;;;;;;52.33;48.75;;;0.50;99.90;;;;;;4995178;28;20168;-72
2021/01/17 07:20:08;;;;;;;49.53;45.70;;;0.50;99.90;;;;;;4995289;28;20199;-72
2021/01/17 07:22:35;;;;;;;45.13;41.63;;;0.60;99.90;;;;;;4994912;28;20205;-72
2021/01/17 07:25:03;;;;;;;43.97;40.33;;;0.60;99.90;;;;;;4994993;28;20230;-72
2021/01/17 07:28:05;;;;;;;42.35;39.13;;;0.70;99.90;;;;;;4993662;28;20556;-72
2021/01/17 07:30:49;;;;;;;42.90;39.40;;;0.70;99.90;;;;;;4994589;28;20183;-72
2021/01/17 07:33:35;;;;;;;52.42;48.05;;;0.80;99.90;;;;;;4994785;28;20192;-72
2021/01/17 07:36:06;;;;;;;48.97;45.08;;;0.80;99.90;;;;;;4994592;28;20172;-72
2021/01/17 07:38:34;;;;;;;51.55;47.38;;;0.80;99.90;;;;;;4993418;28;20199;-72
2021/01/17 07:41:09;;;;;;;45.28;41.45;;;0.90;99.90;;;;;;4994495;28;20171;-72
2021/01/17 07:43:45;;;;;;;51.28;47.72;;;0.90;99.90;;;;;;4994739;28;20530;-72
2021/01/17 07:46:13;;;;;;;63.85;58.83;;;0.80;99.90;;;;;;4994378;28;20251;-72
2021/01/17 07:48:40;;;;;;;56.45;51.60;;;0.70;99.90;;;;;;4994243;28;20266;-72
2021/01/17 07:51:10;;;;;;;51.45;46.85;;;0.70;99.90;;;;;;4994968;28;20619;-71
2021/01/17 07:53:41;;;;;;;57.17;52.22;;;0.70;99.90;;;;;;4994436;28;20211;-72
2021/01/17 07:56:32;;;;;;;55.65;50.97;;;0.70;99.90;;;;;;4992862;28;20172;-72
2021/01/17 07:59:00;;;;;;;50.70;46.13;;;0.70;99.90;;;;;;4994432;28;20210;-72
2021/01/17 08:01:31;;;;;;;57.13;52.72;;;0.70;99.90;;;;;;4994794;28;20175;-72
2021/01/17 08:03:56;;;;;;;55.05;50.22;;;0.60;99.90;;;;;;4994445;28;20223;-72
2021/01/17 08:06:42;;;;;;;50.03;45.37;;;0.60;99.90;;;;;;4992931;28;20657;-72
2021/01/17 08:09:15;;;;;;;46.10;42.20;;;0.70;99.90;;;;;;4994406;28;20207;-71
2021/01/17 08:11:45;;;;;;;48.80;44.15;;;0.60;99.90;;;;;;4994821;28;20192;-72
2021/01/17 08:14:21;;;;;;;49.75;45.53;;;0.70;99.90;;;;;;4982440;28;20201;-71
2021/01/17 08:17:12;;;;;;;62.70;57.42;;;0.50;99.90;;;;;;4972387;28;20168;-72
2021/01/17 08:19:39;;;;;;;53.30;48.60;;;0.60;99.90;;;;;;4970660;28;20208;-72
2021/01/17 08:22:17;;;;;;;59.53;54.50;;;0.70;99.90;;;;;;4972640;28;20196;-72
2021/01/17 08:24:50;;;;;;;56.50;51.78;;;0.70;99.90;;;;;;4972515;28;20180;-72
2021/01/17 08:27:31;;;;;;;52.75;47.65;;;0.70;99.90;;;;;;4972313;28;20643;-72
2021/01/17 08:30:03;;;;;;;47.85;43.45;;;0.60;99.90;;;;;;4972119;28;20302;-71
2021/01/17 08:32:40;;;;;;;57.08;52.60;;;0.70;99.90;;;;;;4972663;28;20176;-72
2021/01/17 08:35:15;;;;;;;48.33;44.17;;;0.70;99.90;;;;;;4971282;28;20208;-71
2021/01/17 08:37:49;;;;;;;52.22;47.90;;;0.80;99.90;;;;;;4975232;28;20650;-74
2021/01/17 08:40:28;;;;;;;54.40;49.40;;;0.80;99.90;;;;;;4975480;28;20570;-74
2021/01/17 08:42:59;;;;;;;53.85;49.35;;;0.70;99.90;;;;;;4974778;28;20820;-73
2021/01/17 08:45:28;;;;;;;65.20;60.17;;;0.60;99.90;;;;;;4976363;28;20183;-71
2021/01/17 08:48:00;;;;;;;59.63;54.95;;;0.80;99.90;;;;;;4976155;28;20243;-71
2021/01/17 08:50:37;;;;;;;66.20;61.13;;;0.70;99.90;;;;;;4976096;28;20189;-71
2021/01/17 08:53:21;;;;;;;67.20;62.30;;;0.80;99.90;;;;;;4975872;28;20187;-71
2021/01/17 08:55:48;;;;;;;66.32;61.55;;;1.00;99.90;;;;;;4974474;28;20179;-71
2021/01/17 08:58:16;;;;;;;62.67;57.78;;;1.00;99.90;;;;;;4975229;28;20624;-71
2021/01/17 09:00:48;;;;;;;57.40;52.92;;;1.00;99.90;;;;;;4975894;28;20180;-71
2021/01/17 09:03:24;;;;;;;61.50;57.00;;;1.10;99.90;;;;;;4982504;28;20211;-71
2021/01/17 09:06:02;;;;;;;72.03;66.63;;;1.30;99.90;;;;;;4995089;28;20198;-71
2021/01/17 09:08:29;;;;;;;67.45;62.58;;;1.30;99.90;;;;;;4994423;28;20186;-72
2021/01/17 09:10:56;;;;;;;56.35;51.78;;;1.20;99.90;;;;;;4995068;28;20176;-71
2021/01/17 09:13:29;;;;;;;56.58;51.60;;;1.10;99.80;;;;;;4995065;28;20204;-71
2021/01/17 09:16:09;;;;;;;57.78;52.75;;;1.00;99.90;;;;;;4994899;28;20271;-71
2021/01/17 09:18:37;;;;;;;56.67;52.00;;;1.00;99.90;;;;;;4989052;28;20200;-71
2021/01/17 09:21:06;;;;;;;50.00;45.40;;;1.00;99.90;;;;;;4981550;28;20184;-72
2021/01/17 09:23:39;;;;;;;56.45;51.45;;;1.00;99.90;;;;;;4974143;28;20199;-72
2021/01/17 09:26:06;;;;;;;54.50;50.10;;;1.00;99.90;;;;;;4975845;28;20202;-71
2021/01/17 09:28:31;;;;;;;47.63;43.78;;;1.00;99.90;;;;;;4975240;28;20180;-71
2021/01/17 09:31:01;;;;;;;51.27;46.17;;;1.00;99.90;;;;;;4973947;28;20168;-72
2021/01/17 09:33:28;;;;;;;49.50;45.40;;;1.10;99.90;;;;;;4975158;28;20667;-71
2021/01/17 09:35:54;;;;;;;55.85;51.55;;;1.10;99.80;;;;;;4973673;28;20180;-71
2021/01/17 09:38:24;;;;;;;52.65;48.28;;;1.10;99.90;;;;;;4975045;28;20188;-71
2021/01/17 09:40:55;;;;;;;50.05;45.92;;;1.20;99.90;;;;;;4975080;28;20261;-71
2021/01/17 09:43:21;;;;;;;54.42;50.35;;;1.20;99.70;;;;;;4973856;28;20545;-71
2021/01/17 09:45:56;;;;;;;52.83;48.97;;;1.20;99.70;;;;;;4973458;28;20181;-71
2021/01/17 09:48:23;;;;;;;52.58;48.67;;;1.20;99.70;;;;;;4973676;28;20182;-71
2021/01/17 09:50:52;;;;;;;48.85;44.33;;;1.20;99.70;;;;;;4974836;28;20190;-71
2021/01/17 09:53:18;;;;;;;58.58;54.25;;;1.10;99.60;;;;;;4974709;28;20729;-71
2021/01/17 09:55:46;;;;;;;57.05;53.30;;;1.10;99.70;;;;;;4974624;28;20172;-71
2021/01/17 09:58:13;;;;;;;53.70;49.20;;;1.20;99.90;;;;;;4974617;28;20231;-71
2021/01/17 10:00:40;;;;;;;52.53;48.58;;;1.10;99.50;;;;;;4974598;28;20275;-71
2021/01/17 10:03:14;;;;;;;58.80;54.25;;;1.10;99.80;;;;;;4974830;28;20581;-71
2021/01/17 10:05:42;;;;;;;53.17;49.05;;;1.20;99.90;;;;;;4973234;28;20260;-71
2021/01/17 10:08:09;;;;;;;49.40;45.13;;;1.30;99.90;;;;;;4974572;28;20172;-71
2021/01/17 10:10:36;;;;;;;50.95;46.88;;;1.20;99.90;;;;;;4973806;28;20184;-71
2021/01/17 10:13:03;;;;;;;54.10;49.80;;;1.10;99.90;;;;;;4974269;28;20200;-71
2021/01/17 10:15:29;;;;;;;56.83;52.63;;;1.20;99.90;;;;;;4974237;28;20953;-71
2021/01/17 10:17:55;;;;;;;55.63;50.43;;;1.30;99.90;;;;;;4977522;28;20267;-71
2021/01/17 10:20:31;;;;;;;56.47;51.67;;;1.40;99.90;;;;;;4993763;28;20654;-71
2021/01/17 10:23:03;;;;;;;42.80;39.15;;;1.40;99.90;;;;;;4993907;28;20175;-72
2021/01/17 10:25:29;;;;;;;48.55;44.30;;;1.40;99.90;;;;;;4993662;28;20247;-72
2021/01/17 10:28:09;;;;;;;52.03;47.80;;;1.30;99.90;;;;;;4992307;28;20199;-71
2021/01/17 10:30:40;;;;;;;43.85;39.78;;;1.30;99.90;;;;;;4993598;28;20250;-72
2021/01/17 10:33:07;;;;;;;43.30;38.97;;;1.40;99.90;;;;;;4993529;28;20191;-72
2021/01/17 10:35:44;;;;;;;50.95;46.35;;;1.40;99.90;;;;;;4992104;28;20191;-72
2021/01/17 10:38:11;;;;;;;42.22;38.42;;;1.40;99.90;;;;;;4993386;28;20867;-72
2021/01/17 10:40:38;;;;;;;41.38;37.28;;;1.40;99.90;;;;;;5025074;28;20230;-72
2021/01/17 10:43:06;;;;;;;50.03;45.53;;;1.40;99.90;;;;;;4993345;28;20635;-70
2021/01/17 10:45:33;;;;;;;47.75;43.25;;;1.50;99.90;;;;;;4992725;28;20262;-71
2021/01/17 10:48:04;;;;;;;41.42;37.53;;;1.50;99.90;;;;;;4991668;28;20180;-71
2021/01/17 10:50:48;;;;;;;43.10;38.50;;;1.50;99.90;;;;;;4992920;28;20203;-71
2021/01/17 10:53:25;;;;;;;45.90;41.80;;;1.50;99.90;;;;;;4993038;28;20230;-71
2021/01/17 10:55:53;;;;;;;50.08;45.10;;;1.60;99.90;;;;;;4992668;28;20668;-71
2021/01/17 10:58:24;;;;;;;50.00;45.20;;;1.60;99.90;;;;;;4993002;28;20697;-71
2021/01/17 11:00:54;;;;;;;50.03;46.05;;;1.50;99.90;;;;;;5024208;28;20222;-70
2021/01/17 11:03:38;;;;;;;49.47;45.13;;;1.30;99.90;;;;;;4992950;28;20186;-70
2021/01/17 11:06:08;;;;;;;43.33;39.05;;;1.40;99.90;;;;;;4992782;28;20226;-71
2021/01/17 11:08:44;;;;;;;46.30;42.13;;;1.50;99.90;;;;;;4992785;28;20242;-71
2021/01/17 11:11:11;;;;;;;50.83;45.97;;;1.60;99.90;;;;;;4993791;28;20175;-71
2021/01/17 11:13:37;;;;;;;46.78;42.45;;;1.60;99.90;;;;;;4992690;28;20203;-71
2021/01/17 11:16:04;;;;;;;50.53;46.03;;;1.60;99.90;;;;;;4992626;28;20643;-71
2021/01/17 11:18:31;;;;;;;43.00;38.95;;;1.70;99.90;;;;;;4992627;28;20831;-71
2021/01/17 11:21:00;;;;;;;40.90;37.03;;;1.80;99.90;;;;;;4992857;28;20238;-71
2021/01/17 11:23:28;;;;;;;42.25;37.85;;;1.90;99.90;;;;;;4992381;28;20204;-71
2021/01/17 11:26:03;;;;;;;48.55;44.20;;;2.00;99.90;;;;;;4992377;28;20255;-71
2021/01/17 11:28:30;;;;;;;47.95;43.25;;;1.90;99.90;;;;;;4991873;28;20185;-71
2021/01/17 11:31:16;;;;;;;51.90;47.33;;;1.80;99.90;;;;;;4992580;28;20176;-71
2021/01/17 11:33:43;;;;;;;52.42;47.92;;;1.80;99.90;;;;;;4992327;28;20196;-71
2021/01/17 11:36:09;;;;;;;50.13;45.92;;;1.90;99.90;;;;;;4992091;28;20172;-71
2021/01/17 11:38:54;;;;;;;50.83;46.05;;;1.80;99.90;;;;;;4992312;28;20196;-71
2021/01/17 11:41:41;;;;;;;54.15;49.63;;;1.80;99.90;;;;;;4991037;28;20254;-71
2021/01/17 11:44:17;;;;;;;50.10;45.63;;;1.70;99.90;;;;;;4989633;28;20294;-71
2021/01/17 11:46:44;;;;;;;44.22;40.17;;;1.80;99.90;;;;;;4992035;28;20218;-70
2021/01/17 11:49:11;;;;;;;44.40;40.30;;;1.90;99.90;;;;;;4992094;28;20199;-70
2021/01/17 11:51:38;;;;;;;38.72;34.67;;;1.90;99.90;;;;;;4990403;28;20180;-70
2021/01/17 11:54:13;;;;;;;48.75;44.30;;;1.80;99.90;;;;;;4992103;28;20211;-70
2021/01/17 11:56:39;;;;;;;44.60;40.40;;;1.90;99.90;;;;;;4991001;28;20269;-70
2021/01/17 11:59:05;;;;;;;42.38;38.58;;;1.90;99.90;;;;;;4990844;28;20335;-70
2021/01/17 12:01:31;;;;;;;49.40;44.37;;;1.90;99.90;;;;;;4991991;28;20247;-70
2021/01/17 12:04:12;;;;;;;50.33;45.70;;;1.80;99.90;;;;;;4991997;28;20266;-70
2021/01/17 12:06:38;;;;;;;54.03;49.63;;;1.80;99.90;;;;;;4991774;28;20407;-70
2021/01/17 12:09:07;;;;;;;48.80;44.60;;;1.80;99.90;;;;;;4991946;28;20339;-70
2021/01/17 12:11:45;;;;;;;49.35;45.10;;;1.90;99.90;;;;;;4991251;28;20207;-70
2021/01/17 12:14:22;;;;;;;48.55;44.30;;;1.90;99.90;;;;;;4990707;28;20222;-70
2021/01/17 12:16:53;;;;;;;47.72;43.63;;;2.00;99.90;;;;;;4990572;28;20199;-70
2021/01/17 12:19:20;;;;;;;41.08;37.85;;;2.00;99.90;;;;;;4988861;28;20214;-70
2021/01/17 12:21:49;;;;;;;48.08;44.22;;;2.10;99.90;;;;;;4991892;28;20180;-70
2021/01/17 12:24:15;;;;;;;49.20;45.40;;;2.00;99.90;;;;;;4993924;28;20168;-71
2021/01/17 12:26:43;;;;;;;45.25;41.83;;;2.10;99.90;;;;;;4995424;28;20661;-72
2021/01/17 12:29:09;;;;;;;55.45;51.17;;;2.10;99.90;;;;;;4991846;28;20732;-72
2021/01/17 12:31:35;;;;;;;56.38;52.47;;;1.90;99.90;;;;;;4991798;28;20198;-72
2021/01/17 12:34:02;;;;;;;45.17;41.58;;;2.10;99.90;;;;;;4991212;28;20253;-72
2021/01/17 12:36:30;;;;;;;53.80;50.30;;;2.00;99.90;;;;;;4991461;28;20198;-72
2021/01/17 12:38:56;;;;;;;54.10;49.45;;;2.00;99.90;;;;;;4991663;28;20180;-72
2021/01/17 12:41:27;;;;;;;52.40;48.28;;;2.00;99.90;;;;;;4991922;28;20192;-72
2021/01/17 12:43:53;;;;;;;46.22;42.65;;;2.00;99.90;;;;;;4991666;28;20662;-72
2021/01/17 12:46:20;;;;;;;46.95;42.63;;;2.10;99.90;;;;;;4991423;28;20191;-72
2021/01/17 12:48:46;;;;;;;45.80;42.00;;;2.20;99.90;;;;;;4980651;28;20192;-72